createdAt,value
2022-12-03T00:02:39.555Z,0
2022-12-03T00:18:38.102Z,0
2022-12-03T00:34:36.754Z,0
2022-12-03T00:40:04.772Z,0
2022-12-03T00:45:15.081Z,0
2022-12-03T00:50:34.336Z,0
2022-12-03T01:01:20.142Z,0
2022-12-03T01:17:10.628Z,0
2022-12-03T01:27:49.298Z,0
2022-12-03T01:38:27.102Z,0
2022-12-03T01:43:46.449Z,0
2022-12-03T01:54:25.516Z,0
2022-12-03T02:10:22.890Z,0
2022-12-03T02:21:01.085Z,0
2022-12-03T02:36:59.496Z,0
2022-12-03T02:52:56.953Z,0
2022-12-03T03:03:35.463Z,0
2022-12-03T03:08:54.591Z,0
2022-12-03T03:14:14.332Z,0
2022-12-03T03:19:33.551Z,0
2022-12-03T03:35:31.817Z,0
2022-12-03T03:40:51.524Z,0
2022-12-03T03:46:10.407Z,0
2022-12-03T03:51:30.114Z,0
2022-12-03T04:02:08.131Z,0
2022-12-03T04:12:45.764Z,0
2022-12-03T04:18:05.536Z,0
2022-12-03T04:28:44.163Z,0
2022-12-03T04:44:43.398Z,0
2022-12-03T05:00:41.072Z,0
2022-12-03T05:11:19.111Z,0
2022-12-03T05:16:49.050Z,0
2022-12-03T05:27:26.138Z,0
2022-12-03T05:37:55.590Z,0
2022-12-03T05:53:54.174Z,0
2022-12-03T05:59:14.088Z,0
2022-12-03T06:09:52.183Z,0
2022-12-03T06:20:31.303Z,0
2022-12-03T06:25:50.316Z,0
2022-12-03T06:36:37.326Z,0
2022-12-03T06:41:57.969Z,0
2022-12-03T06:52:27.380Z,0
2022-12-03T06:57:46.257Z,3
2022-12-03T07:08:24.769Z,12
2022-12-03T07:19:03.465Z,25.15
2022-12-03T07:24:22.742Z,25.25
2022-12-03T07:29:41.963Z,26.25
2022-12-03T07:35:00.795Z,31.19
2022-12-03T07:50:59.737Z,35.2
2022-12-03T08:01:37.392Z,33.59
2022-12-03T08:07:04.857Z,38.15
2022-12-03T08:17:35.736Z,42.85
2022-12-03T08:28:14.391Z,47.44
2022-12-03T08:33:33.997Z,61.8
2022-12-03T08:38:52.894Z,63.25
2022-12-03T08:44:12.823Z,61.09
2022-12-03T08:54:51.995Z,60.19
2022-12-03T09:00:11.454Z,74.55
2022-12-03T09:10:49.955Z,72.55
2022-12-03T09:26:47.371Z,79.85
2022-12-03T09:37:25.932Z,82.14
2022-12-03T09:53:24.062Z,120.25
2022-12-03T10:04:02.635Z,100.29
2022-12-03T10:09:21.595Z,105.6
2022-12-03T10:20:01.142Z,99.1
2022-12-03T10:25:20.544Z,96.39
2022-12-03T10:35:58.843Z,95.5
2022-12-03T10:57:48.125Z,112.14
2022-12-03T11:08:26.788Z,142.25
2022-12-03T11:19:06.209Z,128.64
2022-12-03T11:24:25.632Z,116.1
2022-12-03T11:40:23.092Z,110.79
2022-12-03T11:51:02.177Z,82.89
2022-12-03T11:56:21.801Z,73.34
2022-12-03T12:07:00.592Z,60.8
2022-12-03T12:22:56.984Z,52.75
2022-12-03T12:28:15.957Z,52.8
2022-12-03T12:33:35.598Z,56.09
2022-12-03T12:38:54.374Z,55.39
2022-12-03T12:49:33.416Z,62.84
2022-12-03T13:05:32.469Z,52.89
2022-12-03T13:16:11.297Z,47.94
2022-12-03T13:21:30.531Z,52.44
2022-12-03T13:32:08.802Z,43.25
2022-12-03T13:48:06.417Z,45.79
2022-12-03T13:58:45.674Z,41.85
2022-12-03T14:04:04.798Z,41.19
2022-12-03T14:14:42.942Z,34.8
2022-12-03T14:30:41.112Z,27.9
2022-12-03T14:46:38.074Z,28.15
2022-12-03T14:57:16.533Z,25.05
2022-12-03T15:07:54.723Z,8
2022-12-03T15:23:52.506Z,0
2022-12-03T15:29:12.032Z,0
2022-12-03T15:34:31.136Z,0
2022-12-03T15:39:50.099Z,0
2022-12-03T15:45:13.572Z,0
2022-12-03T15:50:29.422Z,0
2022-12-03T16:01:07.789Z,0
2022-12-03T16:06:26.720Z,0
2022-12-03T16:17:05.739Z,0
2022-12-03T16:22:25.369Z,0
2022-12-03T16:33:04.115Z,0
2022-12-03T16:38:23.989Z,0
2022-12-03T16:49:02.395Z,0
2022-12-03T16:59:41.018Z,0
2022-12-03T17:05:00.401Z,0
2022-12-03T17:15:38.440Z,0
2022-12-03T17:20:57.405Z,0
2022-12-03T17:31:41.555Z,0
2022-12-03T17:42:15.223Z,0
2022-12-03T17:47:42.141Z,0
2022-12-03T17:58:21.715Z,0
2022-12-03T18:03:32.424Z,0
2022-12-03T18:14:11.119Z,0
2022-12-03T18:24:51.822Z,0
2022-12-03T18:30:08.201Z,0
2022-12-03T18:40:47.510Z,0
2022-12-03T18:46:44.926Z,0
2022-12-03T19:07:24.580Z,0
2022-12-03T19:12:43.439Z,0
2022-12-03T19:23:22.394Z,0
2022-12-03T19:39:20.064Z,0
2022-12-03T19:55:18.153Z,0
2022-12-03T20:05:56.215Z,0
2022-12-03T20:11:15.751Z,0
2022-12-03T20:16:34.587Z,0
2022-12-03T20:21:56.356Z,0
2022-12-03T20:27:13.097Z,0
2022-12-03T20:37:51.759Z,0
2022-12-03T20:53:49.722Z,0
2022-12-03T21:04:27.499Z,0
2022-12-03T21:09:46.314Z,0
2022-12-03T21:20:25.309Z,0
2022-12-03T21:31:04.241Z,0
2022-12-03T21:36:23.396Z,0
2022-12-03T21:47:08.591Z,0
2022-12-03T21:57:39.450Z,0
2022-12-03T22:08:18.242Z,0
2022-12-03T22:13:37.699Z,0
2022-12-03T22:18:57.108Z,0
2022-12-03T22:24:16.435Z,0
2022-12-03T22:29:35.548Z,0
2022-12-03T22:40:14.366Z,0
2022-12-03T22:56:11.698Z,0
2022-12-03T23:06:50.848Z,0
2022-12-03T23:22:50.087Z,0
2022-12-03T23:33:28.544Z,0
2022-12-03T23:38:47.442Z,0
2022-12-03T23:49:26.205Z,0
2022-12-03T23:54:45.564Z,0
